Time;durP1;ratioP1;P1;durP2;ratioP2;P2;SDS_P1;SDS_P2;PMS_P1;PMS_P2;Temp;Humidity;BMP_temperature;BMP_pressure;BME280_temperature;BME280_humidity;BME280_pressure;Samples;Min_cycle;Max_cycle;Signal;HPM_P1;HPM_P2
2022/12/26 00:01:45;;;;;;;54.57;28.30;;;5.70;99.90;;;;;;5092679;28;20222;-72
2022/12/26 00:04:15;;;;;;;57.93;27.87;;;5.70;99.90;;;;;;5092705;28;20196;-73
2022/12/26 00:07:06;;;;;;;64.77;30.37;;;5.80;99.90;;;;;;5092502;28;20277;-72
2022/12/26 00:09:37;;;;;;;62.00;32.03;;;5.80;99.90;;;;;;5092621;28;20610;-72
2022/12/26 00:12:06;;;;;;;55.37;27.70;;;5.80;99.90;;;;;;5091766;28;20191;-72
2022/12/26 00:14:35;;;;;;;47.30;24.43;;;5.70;99.90;;;;;;5091572;28;20603;-74
2022/12/26 00:17:04;;;;;;;45.60;25.10;;;5.80;99.90;;;;;;5092993;28;20224;-71
2022/12/26 00:19:33;;;;;;;53.10;26.50;;;5.70;99.90;;;;;;5093825;28;20222;-73
2022/12/26 00:22:02;;;;;;;54.60;26.67;;;5.70;99.90;;;;;;5093236;28;20192;-71
2022/12/26 00:24:31;;;;;;;54.87;25.63;;;5.70;99.90;;;;;;5092409;28;20214;-72
2022/12/26 00:27:01;;;;;;;56.63;27.50;;;5.70;99.90;;;;;;5092208;28;20202;-72
2022/12/26 00:29:30;;;;;;;48.90;25.17;;;5.80;99.90;;;;;;5092280;28;20199;-71
2022/12/26 00:31:59;;;;;;;47.50;25.63;;;5.80;99.90;;;;;;5092142;28;20196;-71
2022/12/26 00:34:28;;;;;;;48.47;25.23;;;5.80;99.90;;;;;;5092268;28;20308;-72
2022/12/26 00:36:57;;;;;;;46.70;23.87;;;5.80;99.90;;;;;;5092253;28;20629;-72
2022/12/26 00:39:26;;;;;;;45.47;26.10;;;5.80;99.90;;;;;;5092174;28;20189;-71
2022/12/26 00:41:55;;;;;;;45.10;24.70;;;5.80;99.90;;;;;;5092067;28;20202;-72
2022/12/26 00:44:26;;;;;;;46.30;24.87;;;5.80;99.90;;;;;;5092110;28;20206;-72
2022/12/26 00:46:55;;;;;;;44.10;24.03;;;5.70;99.90;;;;;;5092024;28;20220;-74
2022/12/26 00:49:25;;;;;;;43.77;24.37;;;5.70;99.90;;;;;;5092042;28;20263;-71
2022/12/26 00:51:54;;;;;;;47.43;24.93;;;5.80;99.90;;;;;;5092406;28;20566;-73
2022/12/26 00:54:23;;;;;;;51.57;26.53;;;5.80;99.90;;;;;;5092023;28;20249;-73
2022/12/26 00:56:52;;;;;;;44.97;23.63;;;5.80;99.90;;;;;;5091935;28;20245;-71
2022/12/26 00:59:21;;;;;;;43.27;24.07;;;5.80;99.90;;;;;;5091949;28;20206;-72
2022/12/26 01:01:51;;;;;;;47.20;24.23;;;5.80;99.90;;;;;;5091896;28;20205;-73
2022/12/26 01:04:20;;;;;;;44.03;23.70;;;5.90;99.90;;;;;;5092088;28;20630;-73
2022/12/26 01:06:49;;;;;;;48.57;26.83;;;5.90;99.90;;;;;;5091579;28;20239;-77
2022/12/26 01:09:18;;;;;;;48.83;25.60;;;5.90;99.90;;;;;;5091833;28;20202;-76
2022/12/26 01:11:47;;;;;;;45.57;25.50;;;5.90;99.90;;;;;;5091704;28;20219;-70
2022/12/26 01:14:18;;;;;;;49.57;26.80;;;5.90;99.90;;;;;;5091765;28;20728;-74
2022/12/26 01:16:47;;;;;;;52.10;27.37;;;5.90;99.90;;;;;;5091486;28;20594;-71
2022/12/26 01:19:17;;;;;;;47.80;25.60;;;5.90;99.90;;;;;;5091681;28;20194;-70
2022/12/26 01:21:46;;;;;;;54.47;27.27;;;5.90;99.90;;;;;;5091469;28;20256;-70
2022/12/26 01:24:15;;;;;;;46.80;25.97;;;5.80;99.90;;;;;;5094610;28;20188;-71
2022/12/26 01:26:45;;;;;;;49.23;26.00;;;5.90;99.90;;;;;;5095766;28;20200;-77
2022/12/26 01:29:13;;;;;;;47.47;25.30;;;5.80;99.90;;;;;;5095654;28;20209;-73
2022/12/26 01:31:42;;;;;;;46.47;24.40;;;5.90;99.90;;;;;;5095611;28;20199;-71
2022/12/26 01:34:11;;;;;;;49.27;26.37;;;5.90;99.90;;;;;;5095710;28;20197;-73
2022/12/26 01:36:41;;;;;;;54.93;28.67;;;5.90;99.90;;;;;;5093730;28;20256;-70
2022/12/26 01:39:10;;;;;;;55.00;25.53;;;6.00;99.90;;;;;;5094185;28;20246;-70
2022/12/26 01:41:39;;;;;;;57.63;28.53;;;6.00;99.90;;;;;;5095537;28;20203;-71
2022/12/26 01:44:46;;;;;;;50.83;27.40;;;6.00;99.90;;;;;;5095567;28;20279;-80
2022/12/26 01:47:16;;;;;;;64.40;29.13;;;5.90;99.90;;;;;;5095426;28;20203;-71
2022/12/26 01:49:49;;;;;;;56.40;28.43;;;5.90;99.90;;;;;;5095372;28;20255;-70
2022/12/26 01:52:23;;;;;;;53.37;27.47;;;5.90;99.90;;;;;;5095343;28;20737;-70
2022/12/26 01:54:54;;;;;;;60.63;29.00;;;5.90;99.90;;;;;;5095292;28;20198;-71
2022/12/26 01:57:27;;;;;;;58.87;27.93;;;5.90;99.90;;;;;;5095434;28;20248;-74
2022/12/26 01:59:58;;;;;;;57.27;30.13;;;5.90;99.90;;;;;;5095389;28;20211;-75
2022/12/26 02:02:28;;;;;;;57.03;28.57;;;5.90;99.90;;;;;;5095163;28;20204;-73
2022/12/26 02:07:47;;;;;;;58.53;28.73;;;5.90;99.90;;;;;;5094783;28;20235;-71
2022/12/26 02:10:21;;;;;;;46.90;27.37;;;5.90;99.90;;;;;;5094925;28;20198;-71
2022/12/26 02:12:51;;;;;;;50.77;26.83;;;5.80;99.90;;;;;;5094919;28;20673;-78
2022/12/26 02:15:20;;;;;;;44.53;24.53;;;5.90;99.90;;;;;;5095021;28;20197;-72
2022/12/26 02:17:49;;;;;;;49.03;26.90;;;5.90;99.90;;;;;;5093657;28;20315;-73
2022/12/26 02:20:22;;;;;;;45.83;26.03;;;6.00;99.90;;;;;;5094749;28;20196;-74
2022/12/26 02:23:28;;;;;;;50.33;26.63;;;5.90;99.90;;;;;;5094810;28;20279;-73
2022/12/26 02:26:30;;;;;;;45.60;25.33;;;5.90;99.90;;;;;;5094429;28;20201;-72
2022/12/26 02:29:19;;;;;;;47.40;23.77;;;5.90;99.90;;;;;;5072069;28;20610;-71
2022/12/26 02:31:56;;;;;;;52.40;26.73;;;5.90;99.90;;;;;;5072134;28;20253;-71
2022/12/26 02:34:35;;;;;;;51.93;27.77;;;6.00;99.90;;;;;;5071527;28;20209;-71
2022/12/26 02:37:20;;;;;;;62.33;27.73;;;5.90;99.90;;;;;;5071899;28;20247;-72
2022/12/26 02:40:03;;;;;;;56.77;27.83;;;6.00;99.90;;;;;;5071983;28;20205;-73
2022/12/26 02:42:41;;;;;;;60.27;29.83;;;6.00;99.90;;;;;;5071786;28;20690;-72
2022/12/26 02:48:13;;;;;;;57.57;26.30;;;5.90;99.90;;;;;;5071798;28;20208;-71
2022/12/26 03:14:02;;;;;;;61.00;28.93;;;5.90;99.90;;;;;;5071188;28;20286;-72
2022/12/26 03:19:19;;;;;;;49.53;25.70;;;5.90;99.90;;;;;;5071645;28;20259;-71
2022/12/26 03:21:51;;;;;;;45.53;24.00;;;6.00;99.90;;;;;;5071242;28;20211;-74
2022/12/26 03:24:21;;;;;;;51.23;24.27;;;5.90;99.90;;;;;;5071206;28;20203;-70
2022/12/26 03:26:53;;;;;;;43.73;24.00;;;5.90;99.90;;;;;;5071149;28;20242;-70
2022/12/26 03:32:12;;;;;;;57.53;26.07;;;5.90;99.90;;;;;;5054455;28;20242;-71
2022/12/26 03:34:43;;;;;;;40.87;23.83;;;6.00;99.90;;;;;;5093373;28;20615;-82
2022/12/26 03:37:33;;;;;;;47.27;24.07;;;5.90;99.90;;;;;;5093670;28;20253;-71
2022/12/26 04:44:04;;;;;;;43.67;23.33;;;6.30;99.90;;;;;;5069720;28;20196;-71
2022/12/26 04:46:37;;;;;;;41.87;24.17;;;6.30;99.90;;;;;;5083062;28;20271;-72
2022/12/26 04:51:57;;;;;;;43.00;24.17;;;6.30;99.90;;;;;;5092034;28;20535;-71
2022/12/26 04:54:26;;;;;;;36.33;21.20;;;6.30;99.90;;;;;;5092105;28;20192;-71
2022/12/26 04:56:55;;;;;;;39.60;22.03;;;6.30;99.90;;;;;;5091908;28;20185;-79
2022/12/26 04:59:24;;;;;;;41.93;22.80;;;6.20;99.90;;;;;;5091519;28;20213;-71
2022/12/26 05:10:21;;;;;;;28.80;17.80;;;6.30;99.90;;;;;;5124519;27;20581;-71
2022/12/26 05:12:51;;;;;;;30.53;16.97;;;6.20;99.90;;;;;;5091771;28;20195;-75
2022/12/26 05:15:21;;;;;;;25.97;17.60;;;6.20;99.90;;;;;;5091926;28;20216;-76
2022/12/26 05:29:04;;;;;;;21.47;13.67;;;6.20;99.90;;;;;;5091407;28;20291;-72
2022/12/26 05:31:33;;;;;;;18.97;12.83;;;6.20;99.90;;;;;;5091744;28;20185;-74
2022/12/26 05:34:05;;;;;;;16.10;11.97;;;6.20;99.90;;;;;;5091854;28;20565;-72
2022/12/26 05:36:38;;;;;;;16.77;12.33;;;6.20;99.90;;;;;;5091675;28;20184;-73
2022/12/26 05:39:08;;;;;;;15.97;11.87;;;6.20;99.90;;;;;;5091617;28;20296;-72
2022/12/26 05:41:39;;;;;;;19.53;11.67;;;6.20;99.90;;;;;;5091596;28;20184;-71
2022/12/26 05:44:09;;;;;;;18.10;12.83;;;6.10;99.90;;;;;;5091582;28;20196;-76
2022/12/26 05:46:41;;;;;;;17.50;12.27;;;6.00;99.90;;;;;;5091586;28;20197;-74
2022/12/26 05:49:11;;;;;;;18.10;12.27;;;6.10;99.90;;;;;;5091483;28;20199;-80
2022/12/26 05:51:40;;;;;;;16.13;11.83;;;6.20;99.90;;;;;;5091428;28;20223;-73
2022/12/26 05:54:10;;;;;;;19.30;12.67;;;6.20;99.90;;;;;;5091435;28;20210;-71
2022/12/26 05:56:39;;;;;;;18.33;12.00;;;6.20;99.90;;;;;;5091632;28;20193;-72
2022/12/26 05:59:11;;;;;;;16.50;11.90;;;6.10;99.90;;;;;;5091212;28;20222;-71
2022/12/26 06:01:40;;;;;;;21.13;12.47;;;6.20;99.90;;;;;;5091361;28;20552;-71
2022/12/26 06:04:11;;;;;;;18.53;12.10;;;6.20;99.90;;;;;;5091224;28;20295;-71
2022/12/26 06:06:40;;;;;;;16.03;10.87;;;6.20;99.90;;;;;;5089809;28;20239;-72
2022/12/26 06:09:09;;;;;;;16.13;11.20;;;6.10;99.90;;;;;;5090196;28;20291;-77
2022/12/26 06:11:39;;;;;;;15.60;10.97;;;6.10;99.90;;;;;;5094606;28;20215;-71
2022/12/26 06:14:14;;;;;;;16.43;9.70;;;6.20;99.90;;;;;;5095047;28;20615;-83
2022/12/26 06:16:43;;;;;;;12.43;9.43;;;6.20;99.90;;;;;;5095174;28;20277;-84
2022/12/26 06:19:14;;;;;;;14.50;9.53;;;6.20;99.90;;;;;;5095086;28;20627;-75
2022/12/26 06:21:43;;;;;;;11.87;8.50;;;6.20;99.90;;;;;;5094967;28;20205;-75
2022/12/26 06:24:12;;;;;;;11.20;7.17;;;6.20;99.90;;;;;;5094806;28;20199;-74
2022/12/26 06:26:41;;;;;;;13.07;8.43;;;6.20;99.90;;;;;;5094734;28;20259;-78
2022/12/26 06:29:10;;;;;;;14.23;8.10;;;6.30;99.90;;;;;;5094668;28;20192;-75
2022/12/26 06:31:39;;;;;;;10.43;8.10;;;6.40;99.90;;;;;;5094837;28;20200;-72
2022/12/26 06:34:12;;;;;;;10.37;7.57;;;6.40;99.90;;;;;;5094655;28;20645;-81
2022/12/26 06:36:42;;;;;;;10.73;7.27;;;6.40;99.90;;;;;;5094439;28;20197;-71
2022/12/26 06:39:11;;;;;;;8.77;7.30;;;6.40;99.90;;;;;;5094807;28;20295;-71
2022/12/26 06:41:40;;;;;;;23.37;15.57;;;6.30;99.90;;;;;;5094505;28;20187;-71
2022/12/26 06:44:10;;;;;;;11.27;8.83;;;6.40;99.90;;;;;;5094396;28;20203;-77
2022/12/26 06:46:45;;;;;;;12.43;7.40;;;6.50;99.90;;;;;;5094457;28;20192;-73
2022/12/26 06:49:14;;;;;;;9.70;7.43;;;6.40;99.90;;;;;;5094364;28;20200;-73
2022/12/26 06:51:45;;;;;;;9.33;6.90;;;6.40;99.90;;;;;;5094631;28;20196;-73
2022/12/26 06:54:14;;;;;;;10.10;7.60;;;6.40;99.90;;;;;;5094215;28;20267;-73
2022/12/26 06:56:43;;;;;;;9.37;7.10;;;6.50;99.90;;;;;;5094349;28;20189;-82
2022/12/26 06:59:12;;;;;;;10.10;8.20;;;6.50;99.90;;;;;;5093892;28;20196;-73
2022/12/26 07:01:41;;;;;;;10.10;7.40;;;6.40;99.90;;;;;;5095511;28;20223;-73
2022/12/26 07:04:13;;;;;;;10.37;7.77;;;6.50;99.90;;;;;;5098080;28;20637;-73
2022/12/26 07:06:42;;;;;;;10.33;7.37;;;6.50;99.90;;;;;;5097022;28;20286;-73
2022/12/26 07:09:16;;;;;;;10.53;7.93;;;6.50;99.90;;;;;;5096838;28;20192;-71
2022/12/26 07:11:47;;;;;;;11.23;7.33;;;6.40;99.90;;;;;;5094265;28;20205;-72
2022/12/26 07:14:16;;;;;;;9.97;7.47;;;6.40;99.90;;;;;;5094559;28;20203;-73
2022/12/26 07:16:46;;;;;;;12.10;9.47;;;6.40;99.90;;;;;;5094158;28;20200;-78
2022/12/26 07:19:15;;;;;;;11.50;8.27;;;6.40;99.90;;;;;;5093764;28;20213;-72
2022/12/26 07:21:45;;;;;;;9.97;7.23;;;6.50;99.90;;;;;;5093624;28;20192;-77
2022/12/26 07:24:17;;;;;;;11.30;7.73;;;6.40;99.90;;;;;;5093760;28;20192;-78
2022/12/26 07:26:47;;;;;;;9.80;7.10;;;6.50;99.90;;;;;;5093693;28;20254;-74
2022/12/26 07:29:17;;;;;;;8.57;7.20;;;6.50;99.90;;;;;;5093575;28;20196;-72
2022/12/26 07:31:46;;;;;;;10.77;7.47;;;6.40;99.90;;;;;;5093663;28;20710;-80
2022/12/26 07:34:15;;;;;;;8.93;7.37;;;6.50;99.90;;;;;;5093434;28;20552;-78
2022/12/26 07:36:44;;;;;;;8.23;6.83;;;6.60;99.90;;;;;;5093579;28;20185;-82
2022/12/26 07:39:15;;;;;;;8.70;6.87;;;6.60;99.90;;;;;;5093411;28;20245;-83
2022/12/26 07:42:00;;;;;;;7.57;6.67;;;6.60;99.90;;;;;;5093212;28;20200;-73
2022/12/26 07:44:31;;;;;;;13.37;10.20;;;6.70;99.90;;;;;;5093047;28;20562;-71
2022/12/26 07:47:00;;;;;;;11.50;8.27;;;6.70;99.90;;;;;;5093107;28;20192;-72
2022/12/26 07:49:29;;;;;;;8.43;7.00;;;6.70;99.90;;;;;;5093074;28;20279;-72
2022/12/26 07:51:58;;;;;;;8.20;6.40;;;6.80;99.90;;;;;;5093080;28;20212;-71
2022/12/26 07:54:31;;;;;;;8.97;6.70;;;6.70;99.90;;;;;;5092777;28;20866;-73
2022/12/26 07:56:59;;;;;;;16.70;12.37;;;6.80;99.90;;;;;;5093019;28;20561;-74
2022/12/26 07:59:49;;;;;;;7.67;6.50;;;6.70;99.90;;;;;;5092856;28;20299;-72
2022/12/26 08:02:22;;;;;;;21.07;15.67;;;6.80;99.90;;;;;;5093208;28;20553;-71
2022/12/26 08:04:52;;;;;;;19.13;16.13;;;6.80;99.90;;;;;;5093043;28;20252;-72
2022/12/26 08:07:21;;;;;;;23.33;17.67;;;6.90;99.90;;;;;;5092535;28;20228;-71
2022/12/26 08:09:51;;;;;;;26.63;19.90;;;6.90;99.90;;;;;;5092756;28;20189;-80
2022/12/26 08:12:23;;;;;;;20.37;17.57;;;6.90;99.90;;;;;;5092657;28;20668;-75
2022/12/26 08:14:52;;;;;;;20.77;17.47;;;6.90;99.90;;;;;;5092679;28;20666;-76
2022/12/26 08:17:21;;;;;;;18.87;15.40;;;7.00;99.90;;;;;;5092807;28;20615;-70
2022/12/26 08:19:50;;;;;;;16.60;13.77;;;7.00;99.90;;;;;;5092581;28;20269;-71
2022/12/26 08:22:19;;;;;;;21.57;15.17;;;7.00;99.90;;;;;;5090907;28;20196;-77
2022/12/26 08:24:47;;;;;;;41.17;29.30;;;7.00;99.90;;;;;;5093019;28;20189;-69
2022/12/26 08:27:18;;;;;;;40.10;28.60;;;7.10;99.90;;;;;;5092937;28;20236;-69
2022/12/26 08:29:48;;;;;;;23.87;18.97;;;7.10;99.90;;;;;;5091305;28;20204;-70
2022/12/26 08:32:17;;;;;;;45.03;33.83;;;7.10;99.90;;;;;;5092500;28;20202;-78
2022/12/26 08:34:46;;;;;;;34.37;26.13;;;7.10;99.90;;;;;;5092846;28;20200;-68
2022/12/26 08:37:15;;;;;;;38.67;32.17;;;7.10;99.90;;;;;;5090795;28;20204;-69
2022/12/26 08:39:43;;;;;;;24.47;19.60;;;7.20;99.90;;;;;;5092600;28;20690;-70
2022/12/26 08:42:13;;;;;;;129.07;79.40;;;7.20;99.90;;;;;;5092392;28;20635;-69
2022/12/26 08:44:44;;;;;;;47.27;31.87;;;7.30;99.90;;;;;;5092566;28;20599;-70
2022/12/26 08:47:13;;;;;;;28.30;21.43;;;7.40;99.90;;;;;;5092723;28;20659;-70
2022/12/26 08:49:42;;;;;;;33.83;23.73;;;7.50;99.90;;;;;;5090658;28;20249;-69
2022/12/26 08:52:11;;;;;;;34.50;23.73;;;7.50;99.90;;;;;;5092104;28;20219;-70
2022/12/26 08:54:40;;;;;;;44.80;30.53;;;7.50;99.90;;;;;;5092423;28;20201;-71
2022/12/26 08:57:09;;;;;;;43.53;32.37;;;7.50;99.90;;;;;;5092504;28;20302;-69
2022/12/26 08:59:37;;;;;;;38.17;27.40;;;7.50;99.90;;;;;;5090891;28;20292;-68
2022/12/26 09:02:10;;;;;;;30.00;23.40;;;7.50;99.90;;;;;;5092220;28;20641;-68
2022/12/26 09:04:39;;;;;;;36.63;25.73;;;7.50;99.90;;;;;;5091855;28;20187;-71
2022/12/26 09:07:09;;;;;;;43.00;25.63;;;7.50;99.90;;;;;;5092142;28;20224;-69
2022/12/26 09:09:38;;;;;;;37.73;25.63;;;7.50;99.90;;;;;;5092439;28;20603;-69
2022/12/26 09:12:07;;;;;;;39.70;25.80;;;7.40;99.90;;;;;;5092168;28;20200;-68
2022/12/26 09:14:36;;;;;;;38.33;25.20;;;7.40;99.90;;;;;;5092250;28;20201;-69
2022/12/26 09:17:05;;;;;;;32.90;22.93;;;7.30;99.90;;;;;;5092290;28;20196;-68
2022/12/26 09:19:36;;;;;;;51.40;36.67;;;7.30;99.90;;;;;;5091829;28;20195;-70
2022/12/26 09:24:51;;;;;;;29.10;21.37;;;7.30;99.90;;;;;;5092215;28;20749;-71
2022/12/26 09:27:20;;;;;;;22.27;16.73;;;7.30;99.90;;;;;;5091710;28;20253;-72
2022/12/26 09:29:49;;;;;;;19.00;13.73;;;7.30;99.90;;;;;;5092420;28;20189;-71
2022/12/26 09:32:18;;;;;;;22.60;16.87;;;7.30;99.90;;;;;;5091759;28;20234;-71
2022/12/26 09:34:50;;;;;;;19.07;13.53;;;7.40;99.90;;;;;;5091591;28;20212;-69
2022/12/26 09:37:19;;;;;;;17.60;13.47;;;7.50;99.90;;;;;;5091542;28;20192;-71
2022/12/26 09:39:49;;;;;;;19.20;13.23;;;7.50;99.90;;;;;;5091692;28;20220;-70
2022/12/26 09:42:26;;;;;;;19.73;13.97;;;7.50;99.90;;;;;;5091408;28;20220;-71
2022/12/26 09:45:00;;;;;;;16.27;12.10;;;7.60;99.90;;;;;;5093739;28;20245;-71
2022/12/26 09:47:34;;;;;;;18.80;12.87;;;7.60;99.90;;;;;;5095582;28;20669;-72
2022/12/26 09:50:12;;;;;;;19.73;13.20;;;7.60;99.90;;;;;;5095482;28;20204;-71
2022/12/26 09:52:49;;;;;;;19.43;12.73;;;7.60;99.90;;;;;;5095398;28;20204;-72
2022/12/26 09:55:37;;;;;;;19.47;13.47;;;7.70;99.90;;;;;;5095297;28;20274;-70
2022/12/26 09:58:20;;;;;;;17.67;12.10;;;7.70;99.90;;;;;;5095271;28;20193;-70
2022/12/26 10:00:55;;;;;;;16.63;13.07;;;7.70;99.90;;;;;;5095013;28;20580;-71
2022/12/26 10:03:25;;;;;;;17.73;12.53;;;7.80;99.90;;;;;;5095173;28;20196;-73
2022/12/26 10:06:15;;;;;;;16.27;13.00;;;7.80;99.90;;;;;;5095275;28;20220;-74
2022/12/26 10:09:18;;;;;;;28.03;18.07;;;7.90;99.90;;;;;;5094937;28;20185;-74
2022/12/26 10:11:58;;;;;;;21.73;15.77;;;8.00;99.90;;;;;;5012641;28;20199;-71
2022/12/26 10:14:37;;;;;;;23.13;15.83;;;8.00;99.90;;;;;;5012722;28;20610;-71
2022/12/26 10:17:16;;;;;;;25.73;18.63;;;8.00;99.90;;;;;;5012782;28;20234;-72
2022/12/26 10:20:05;;;;;;;22.00;15.30;;;8.10;99.90;;;;;;5012729;28;20303;-70
2022/12/26 10:23:06;;;;;;;20.33;14.93;;;8.10;99.90;;;;;;5012321;28;20716;-71
2022/12/26 10:25:42;;;;;;;22.10;14.53;;;8.20;99.90;;;;;;5012531;28;20198;-70
2022/12/26 10:28:22;;;;;;;19.83;14.60;;;8.20;99.90;;;;;;5012288;28;20213;-71
2022/12/26 10:30:55;;;;;;;39.23;26.03;;;8.20;99.90;;;;;;5012195;28;20560;-70
2022/12/26 10:33:33;;;;;;;27.27;18.67;;;8.30;99.90;;;;;;5012566;28;20207;-71
2022/12/26 10:36:03;;;;;;;18.20;13.60;;;8.30;99.90;;;;;;5012163;28;20595;-70
2022/12/26 10:38:39;;;;;;;19.40;14.30;;;8.30;99.90;;;;;;5012015;28;20351;-70
2022/12/26 10:41:14;;;;;;;20.97;15.23;;;8.30;99.90;;;;;;5012203;28;20278;-70
2022/12/26 10:43:44;;;;;;;21.27;15.00;;;8.30;99.90;;;;;;5012224;28;20202;-70
2022/12/26 10:46:34;;;;;;;21.33;15.33;;;8.40;99.90;;;;;;5012000;28;20199;-70
2022/12/26 10:49:03;;;;;;;19.90;13.90;;;8.40;99.90;;;;;;5059937;28;20604;-71
2022/12/26 10:51:33;;;;;;;17.37;13.37;;;8.40;99.90;;;;;;5094248;28;20192;-70
2022/12/26 10:54:04;;;;;;;16.97;13.13;;;8.40;99.90;;;;;;5094197;28;20204;-71
2022/12/26 10:56:33;;;;;;;20.67;13.40;;;8.40;99.90;;;;;;5093424;28;20199;-71
2022/12/26 10:59:05;;;;;;;18.43;13.63;;;8.50;99.90;;;;;;5094155;28;20226;-72
2022/12/26 11:01:36;;;;;;;17.87;12.73;;;8.50;99.90;;;;;;5094124;28;20269;-71
2022/12/26 11:04:14;;;;;;;18.87;12.90;;;8.60;99.90;;;;;;5093991;28;20191;-71
2022/12/26 11:06:51;;;;;;;17.00;12.47;;;8.60;99.90;;;;;;5093677;28;20307;-71
2022/12/26 11:09:34;;;;;;;21.70;13.13;;;8.60;99.90;;;;;;5093877;28;20188;-72
2022/12/26 11:12:03;;;;;;;16.87;12.47;;;8.70;99.90;;;;;;5093662;28;20197;-72
2022/12/26 11:14:36;;;;;;;13.30;10.57;;;8.70;99.90;;;;;;5093696;28;20632;-72
2022/12/26 11:17:07;;;;;;;15.63;9.90;;;8.70;99.90;;;;;;5093804;28;20223;-69
2022/12/26 11:19:38;;;;;;;15.97;11.87;;;8.70;99.90;;;;;;5093745;28;20200;-69
2022/12/26 11:22:22;;;;;;;18.50;13.20;;;8.80;99.90;;;;;;5093731;28;20232;-72
2022/12/26 11:25:15;;;;;;;16.50;13.30;;;8.80;99.90;;;;;;5093560;28;20254;-69
2022/12/26 11:27:47;;;;;;;10.07;7.47;;;8.80;99.90;;;;;;5093519;28;20188;-69
2022/12/26 11:30:20;;;;;;;10.57;8.67;;;8.70;99.90;;;;;;5093352;28;20742;-71
2022/12/26 11:32:51;;;;;;;9.60;8.07;;;8.70;99.90;;;;;;5093567;28;20693;-81
2022/12/26 11:35:22;;;;;;;6.57;5.50;;;8.60;99.90;;;;;;5093587;28;20573;-79
2022/12/26 11:37:55;;;;;;;6.67;5.67;;;8.60;99.90;;;;;;5093495;28;20197;-69
2022/12/26 11:40:30;;;;;;;7.07;5.57;;;8.60;99.90;;;;;;5093359;28;20192;-70
2022/12/26 11:43:03;;;;;;;6.00;4.80;;;8.60;99.90;;;;;;5093288;28;20226;-70
2022/12/26 11:45:35;;;;;;;7.00;4.93;;;8.60;99.90;;;;;;5092968;28;20207;-70
2022/12/26 11:48:18;;;;;;;5.30;4.30;;;8.50;99.90;;;;;;5093227;28;20257;-71
2022/12/26 11:50:47;;;;;;;5.43;4.40;;;8.50;99.90;;;;;;5092974;28;20678;-71
2022/12/26 11:53:19;;;;;;;5.10;3.90;;;8.50;99.90;;;;;;5093008;28;20200;-70
2022/12/26 11:55:59;;;;;;;5.17;4.67;;;8.40;99.90;;;;;;5092966;28;20201;-70
2022/12/26 11:58:30;;;;;;;6.90;5.30;;;8.30;99.90;;;;;;5093383;28;20193;-71
2022/12/26 12:01:19;;;;;;;6.43;5.53;;;8.30;99.90;;;;;;5092920;28;20185;-72
2022/12/26 12:03:49;;;;;;;6.83;6.00;;;8.30;99.90;;;;;;5092996;28;20228;-70
2022/12/26 12:06:53;;;;;;;7.33;5.43;;;8.30;99.90;;;;;;5092606;28;20683;-72
2022/12/26 12:09:29;;;;;;;6.13;5.53;;;8.30;99.90;;;;;;5092210;28;20192;-70
2022/12/26 12:12:07;;;;;;;7.50;5.73;;;8.30;99.90;;;;;;5092823;28;20188;-70
2022/12/26 12:14:51;;;;;;;6.83;6.10;;;8.30;99.90;;;;;;5092558;28;20219;-71
2022/12/26 12:17:27;;;;;;;32.27;19.67;;;8.30;99.90;;;;;;5092650;28;20200;-75
2022/12/26 12:20:15;;;;;;;12.17;10.70;;;8.30;99.90;;;;;;5092791;28;20192;-71
2022/12/26 12:23:05;;;;;;;8.50;6.10;;;8.30;99.90;;;;;;5092944;28;20224;-70
2022/12/26 12:25:53;;;;;;;7.47;5.90;;;8.20;99.90;;;;;;5092543;28;20197;-71
2022/12/26 12:29:02;;;;;;;6.73;6.03;;;8.20;99.90;;;;;;5092533;28;20300;-72
2022/12/26 12:31:41;;;;;;;6.37;5.60;;;8.20;99.90;;;;;;5049868;28;20266;-77
2022/12/26 12:34:21;;;;;;;6.37;5.70;;;8.30;99.90;;;;;;5049761;28;20202;-74
2022/12/26 12:36:59;;;;;;;6.07;5.40;;;8.30;99.90;;;;;;5049597;28;20213;-73
2022/12/26 12:39:39;;;;;;;6.10;5.33;;;8.30;99.90;;;;;;5049827;28;20691;-69
2022/12/26 12:42:28;;;;;;;6.13;5.50;;;8.30;99.90;;;;;;5049639;28;20209;-70
2022/12/26 12:45:15;;;;;;;5.23;4.73;;;8.20;99.90;;;;;;5049808;28;20202;-75
2022/12/26 12:47:52;;;;;;;4.30;4.00;;;8.20;99.90;;;;;;5049482;28;20347;-74
2022/12/26 12:50:28;;;;;;;5.53;4.53;;;8.20;99.90;;;;;;5049474;28;20208;-72
2022/12/26 12:53:08;;;;;;;6.17;5.10;;;8.30;99.90;;;;;;5049724;28;20206;-71
2022/12/26 12:55:55;;;;;;;6.67;5.23;;;8.30;99.90;;;;;;5049596;28;20655;-79
2022/12/26 12:58:30;;;;;;;5.47;4.53;;;8.30;99.90;;;;;;5049685;28;20201;-77
2022/12/26 13:01:05;;;;;;;4.97;4.47;;;8.20;99.90;;;;;;5049717;28;20256;-71
2022/12/26 13:03:40;;;;;;;5.90;4.77;;;8.30;99.90;;;;;;5049581;28;20308;-69
2022/12/26 13:06:14;;;;;;;4.97;4.57;;;8.30;99.90;;;;;;5049153;28;20231;-72
2022/12/26 13:08:45;;;;;;;5.47;4.43;;;8.30;99.90;;;;;;5080076;28;20712;-70
2022/12/26 13:11:22;;;;;;;5.60;4.83;;;8.20;99.90;;;;;;5091867;28;20685;-69
2022/12/26 13:13:56;;;;;;;4.40;4.00;;;8.30;99.90;;;;;;5091743;28;20200;-70
2022/12/26 13:16:31;;;;;;;6.27;5.53;;;8.30;99.90;;;;;;5091826;28;20204;-70
2022/12/26 13:19:04;;;;;;;4.57;3.90;;;8.20;99.90;;;;;;5091466;28;20204;-69
2022/12/26 13:21:38;;;;;;;4.83;3.97;;;8.20;99.90;;;;;;5091861;28;20199;-70
2022/12/26 13:24:23;;;;;;;5.40;4.33;;;8.20;99.90;;;;;;5091544;28;20319;-71
2022/12/26 13:27:01;;;;;;;5.83;4.50;;;8.20;99.90;;;;;;5091653;28;20246;-71
2022/12/26 13:29:36;;;;;;;5.50;5.00;;;8.20;99.90;;;;;;5091597;28;20201;-74
2022/12/26 13:32:18;;;;;;;6.23;4.43;;;8.20;99.90;;;;;;5091642;28;20687;-71
2022/12/26 13:34:48;;;;;;;24.20;13.90;;;8.20;99.90;;;;;;5091644;28;20200;-70
2022/12/26 13:37:55;;;;;;;5.23;4.63;;;8.20;99.90;;;;;;5091542;28;20293;-70
2022/12/26 13:40:28;;;;;;;8.60;5.40;;;8.20;99.90;;;;;;5091585;28;20188;-75
2022/12/26 13:45:56;;;;;;;5.10;4.20;;;8.20;99.90;;;;;;5091297;28;20192;-82
2022/12/26 13:48:54;;;;;;;8.50;5.77;;;8.10;99.90;;;;;;5091539;28;20192;-79
2022/12/26 13:52:07;;;;;;;6.60;4.27;;;8.10;99.90;;;;;;5091371;28;20666;-69
2022/12/26 13:54:58;;;;;;;4.13;3.80;;;8.10;99.90;;;;;;5009182;28;20333;-79
2022/12/26 13:57:39;;;;;;;4.57;4.00;;;8.10;99.90;;;;;;5009368;28;20210;-74
2022/12/26 14:00:16;;;;;;;4.90;3.83;;;8.10;99.90;;;;;;5009325;28;20207;-73
2022/12/26 14:03:33;;;;;;;6.57;4.50;;;8.10;99.90;;;;;;5009234;28;20214;-69
2022/12/26 14:06:27;;;;;;;6.47;5.30;;;8.10;99.90;;;;;;5009016;28;20233;-70
2022/12/26 14:09:29;;;;;;;5.13;4.53;;;8.10;99.90;;;;;;5009276;28;20195;-80
2022/12/26 14:12:31;;;;;;;4.87;4.30;;;8.10;99.90;;;;;;4950875;29;20217;-73
2022/12/26 14:15:17;;;;;;;4.97;4.20;;;8.10;99.90;;;;;;4948285;29;20209;-68
2022/12/26 14:17:54;;;;;;;4.43;4.03;;;8.10;99.90;;;;;;4934275;29;20315;-70
2022/12/26 14:20:40;;;;;;;4.23;3.83;;;8.10;99.90;;;;;;4949620;29;20219;-69
2022/12/26 14:23:33;;;;;;;5.23;4.10;;;8.10;99.90;;;;;;4948223;29;20252;-68
2022/12/26 14:26:06;;;;;;;5.00;4.37;;;8.00;99.90;;;;;;4950345;29;20206;-69
2022/12/26 14:28:50;;;;;;;5.87;4.20;;;8.00;99.90;;;;;;4950075;29;20213;-80
2022/12/26 14:31:26;;;;;;;5.60;4.80;;;8.10;99.90;;;;;;4979519;28;20262;-75
2022/12/26 14:34:02;;;;;;;7.17;5.43;;;8.10;99.90;;;;;;5012065;28;20214;-78
2022/12/26 14:36:46;;;;;;;8.27;5.93;;;8.00;99.90;;;;;;5010926;28;20205;-67
2022/12/26 14:39:27;;;;;;;5.63;4.00;;;8.10;99.90;;;;;;5011994;28;20206;-74
2022/12/26 14:45:14;;;;;;;5.20;4.30;;;8.10;99.90;;;;;;5011701;28;20230;-73
2022/12/26 14:47:44;;;;;;;7.13;4.97;;;8.10;99.90;;;;;;5022626;28;20203;-69
2022/12/26 14:50:40;;;;;;;6.00;4.80;;;8.10;99.90;;;;;;5093808;28;20275;-69
2022/12/26 14:53:32;;;;;;;7.40;5.17;;;8.10;99.90;;;;;;5093981;28;20225;-70
2022/12/26 14:56:24;;;;;;;7.20;5.20;;;8.00;99.90;;;;;;5093980;28;20279;-72
2022/12/26 14:58:53;;;;;;;5.60;4.70;;;8.00;99.90;;;;;;5075263;28;20203;-70
2022/12/26 15:01:48;;;;;;;7.47;5.37;;;8.00;99.90;;;;;;5093728;28;20296;-68
2022/12/26 15:04:33;;;;;;;7.10;5.50;;;8.00;99.90;;;;;;5093602;28;20315;-68
2022/12/26 15:07:28;;;;;;;7.60;5.60;;;8.00;99.90;;;;;;5092858;28;20228;-68
2022/12/26 15:10:22;;;;;;;7.27;5.70;;;8.10;99.90;;;;;;5093430;28;20205;-70
2022/12/26 15:13:28;;;;;;;6.03;5.43;;;8.00;99.90;;;;;;5093579;28;20531;-76
2022/12/26 15:16:22;;;;;;;7.00;5.47;;;8.00;99.90;;;;;;5093336;28;20238;-68
2022/12/26 15:19:35;;;;;;;6.33;5.67;;;8.10;99.90;;;;;;5093239;28;20261;-69
2022/12/26 15:22:47;;;;;;;5.93;5.37;;;8.10;99.90;;;;;;5093129;28;20207;-69
2022/12/26 15:25:47;;;;;;;7.37;5.93;;;8.10;99.90;;;;;;5093102;28;20660;-69
2022/12/26 15:28:54;;;;;;;8.30;6.27;;;8.10;99.90;;;;;;5092856;28;20206;-67
2022/12/26 15:31:54;;;;;;;6.73;6.00;;;8.10;99.90;;;;;;5010784;28;20265;-70
2022/12/26 15:34:53;;;;;;;9.73;6.13;;;8.20;99.90;;;;;;5011125;28;20203;-68
2022/12/26 15:37:49;;;;;;;7.67;6.60;;;8.10;99.90;;;;;;5008777;28;20211;-69